sensor_id;sensor_type;location;lat;lon;timestamp;P1;durP1;ratioP1;P2;durP2;ratioP2
6255;SDS011;3161;48.794;9.784;2023-05-02T00:02:26;6.13;;;3.37;;
6255;SDS011;3161;48.794;9.784;2023-05-02T00:04:54;3.77;;;3.37;;
6255;SDS011;3161;48.794;9.784;2023-05-02T00:07:21;3.77;;;3.43;;
6255;SDS011;3161;48.794;9.784;2023-05-02T00:09:49;3.80;;;3.47;;
6255;SDS011;3161;48.794;9.784;2023-05-02T00:12:17;4.23;;;3.83;;
6255;SDS011;3161;48.794;9.784;2023-05-02T00:14:45;3.80;;;3.50;;
6255;SDS011;3161;48.794;9.784;2023-05-02T00:17:20;4.30;;;3.90;;
6255;SDS011;3161;48.794;9.784;2023-05-02T00:19:46;4.57;;;3.17;;
6255;SDS011;3161;48.794;9.784;2023-05-02T00:22:13;6.33;;;3.87;;
6255;SDS011;3161;48.794;9.784;2023-05-02T00:24:41;6.87;;;4.10;;
6255;SDS011;3161;48.794;9.784;2023-05-02T00:27:09;4.13;;;3.73;;
6255;SDS011;3161;48.794;9.784;2023-05-02T00:29:36;4.30;;;3.90;;
6255;SDS011;3161;48.794;9.784;2023-05-02T00:32:04;4.30;;;3.90;;
6255;SDS011;3161;48.794;9.784;2023-05-02T00:34:32;6.17;;;3.37;;
6255;SDS011;3161;48.794;9.784;2023-05-02T00:37:00;4.00;;;3.57;;
6255;SDS011;3161;48.794;9.784;2023-05-02T00:39:27;5.90;;;3.40;;
6255;SDS011;3161;48.794;9.784;2023-05-02T00:41:56;5.57;;;3.57;;
6255;SDS011;3161;48.794;9.784;2023-05-02T00:44:24;4.47;;;3.30;;
6255;SDS011;3161;48.794;9.784;2023-05-02T00:46:52;5.80;;;3.33;;
6255;SDS011;3161;48.794;9.784;2023-05-02T00:49:21;6.20;;;3.73;;
6255;SDS011;3161;48.794;9.784;2023-05-02T00:51:48;4.13;;;3.60;;
6255;SDS011;3161;48.794;9.784;2023-05-02T00:54:16;4.70;;;4.20;;
6255;SDS011;3161;48.794;9.784;2023-05-02T00:56:44;3.90;;;3.60;;
6255;SDS011;3161;48.794;9.784;2023-05-02T00:59:11;8.23;;;3.40;;
6255;SDS011;3161;48.794;9.784;2023-05-02T01:10:29;3.67;;;3.37;;
6255;SDS011;3161;48.794;9.784;2023-05-02T01:15:44;4.23;;;3.70;;
6255;SDS011;3161;48.794;9.784;2023-05-02T01:18:13;4.07;;;3.67;;
6255;SDS011;3161;48.794;9.784;2023-05-02T01:20:43;4.27;;;3.90;;
6255;SDS011;3161;48.794;9.784;2023-05-02T01:23:20;4.63;;;3.83;;
6255;SDS011;3161;48.794;9.784;2023-05-02T01:28:53;5.27;;;4.10;;
6255;SDS011;3161;48.794;9.784;2023-05-02T01:31:24;5.03;;;4.17;;
6255;SDS011;3161;48.794;9.784;2023-05-02T01:33:53;3.57;;;3.27;;
6255;SDS011;3161;48.794;9.784;2023-05-02T01:36:22;3.77;;;3.40;;
6255;SDS011;3161;48.794;9.784;2023-05-02T01:38:53;3.60;;;3.30;;
6255;SDS011;3161;48.794;9.784;2023-05-02T01:41:25;3.50;;;3.07;;
6255;SDS011;3161;48.794;9.784;2023-05-02T01:43:55;4.00;;;3.70;;
6255;SDS011;3161;48.794;9.784;2023-05-02T01:46:31;3.33;;;3.10;;
6255;SDS011;3161;48.794;9.784;2023-05-02T01:49:02;3.67;;;3.37;;
6255;SDS011;3161;48.794;9.784;2023-05-02T01:51:32;3.80;;;3.37;;
6255;SDS011;3161;48.794;9.784;2023-05-02T01:54:02;4.00;;;3.70;;
6255;SDS011;3161;48.794;9.784;2023-05-02T01:56:33;3.67;;;3.23;;
6255;SDS011;3161;48.794;9.784;2023-05-02T01:59:04;9.50;;;4.00;;
6255;SDS011;3161;48.794;9.784;2023-05-02T02:01:33;8.37;;;3.70;;
6255;SDS011;3161;48.794;9.784;2023-05-02T02:04:08;4.03;;;3.63;;
6255;SDS011;3161;48.794;9.784;2023-05-02T02:06:37;5.17;;;3.37;;
6255;SDS011;3161;48.794;9.784;2023-05-02T02:09:08;4.53;;;4.13;;
6255;SDS011;3161;48.794;9.784;2023-05-02T02:11:36;6.13;;;3.90;;
6255;SDS011;3161;48.794;9.784;2023-05-02T02:14:13;4.37;;;3.90;;
6255;SDS011;3161;48.794;9.784;2023-05-02T02:16:40;5.33;;;4.83;;
6255;SDS011;3161;48.794;9.784;2023-05-02T02:19:09;5.53;;;5.03;;
6255;SDS011;3161;48.794;9.784;2023-05-02T02:21:45;4.80;;;4.30;;
6255;SDS011;3161;48.794;9.784;2023-05-02T02:24:10;5.80;;;4.43;;
6255;SDS011;3161;48.794;9.784;2023-05-02T02:26:38;4.73;;;4.33;;
6255;SDS011;3161;48.794;9.784;2023-05-02T02:29:06;6.20;;;4.70;;
6255;SDS011;3161;48.794;9.784;2023-05-02T02:31:35;4.40;;;4.00;;
6255;SDS011;3161;48.794;9.784;2023-05-02T02:34:04;5.17;;;4.50;;
6255;SDS011;3161;48.794;9.784;2023-05-02T02:47:49;8.67;;;5.00;;
6255;SDS011;3161;48.794;9.784;2023-05-02T02:50:15;6.13;;;5.13;;
6255;SDS011;3161;48.794;9.784;2023-05-02T02:57:58;5.60;;;5.00;;
6255;SDS011;3161;48.794;9.784;2023-05-02T03:00:36;5.20;;;4.53;;
6255;SDS011;3161;48.794;9.784;2023-05-02T03:03:04;6.03;;;5.13;;
6255;SDS011;3161;48.794;9.784;2023-05-02T03:05:33;5.50;;;5.00;;
6255;SDS011;3161;48.794;9.784;2023-05-02T03:08:02;8.93;;;4.57;;
6255;SDS011;3161;48.794;9.784;2023-05-02T03:10:30;4.80;;;4.40;;
6255;SDS011;3161;48.794;9.784;2023-05-02T03:12:58;5.07;;;4.57;;
6255;SDS011;3161;48.794;9.784;2023-05-02T03:15:39;6.10;;;4.90;;
6255;SDS011;3161;48.794;9.784;2023-05-02T03:18:22;5.90;;;4.97;;
6255;SDS011;3161;48.794;9.784;2023-05-02T03:20:49;7.00;;;5.63;;
6255;SDS011;3161;48.794;9.784;2023-05-02T03:23:17;5.97;;;5.40;;
6255;SDS011;3161;48.794;9.784;2023-05-02T03:25:44;7.30;;;6.00;;
6255;SDS011;3161;48.794;9.784;2023-05-02T03:28:12;7.60;;;5.23;;
6255;SDS011;3161;48.794;9.784;2023-05-02T03:30:39;8.73;;;5.77;;
6255;SDS011;3161;48.794;9.784;2023-05-02T03:33:07;11.00;;;5.33;;
6255;SDS011;3161;48.794;9.784;2023-05-02T03:35:34;5.43;;;4.70;;
6255;SDS011;3161;48.794;9.784;2023-05-02T03:38:02;6.83;;;5.00;;
6255;SDS011;3161;48.794;9.784;2023-05-02T03:40:29;7.93;;;6.07;;
6255;SDS011;3161;48.794;9.784;2023-05-02T03:42:57;5.67;;;5.03;;
6255;SDS011;3161;48.794;9.784;2023-05-02T03:45:24;5.77;;;4.90;;
6255;SDS011;3161;48.794;9.784;2023-05-02T03:47:52;6.20;;;5.60;;
6255;SDS011;3161;48.794;9.784;2023-05-02T03:50:19;8.37;;;5.50;;
6255;SDS011;3161;48.794;9.784;2023-05-02T03:52:47;7.20;;;5.27;;
6255;SDS011;3161;48.794;9.784;2023-05-02T03:55:14;8.93;;;7.20;;
6255;SDS011;3161;48.794;9.784;2023-05-02T03:57:42;7.97;;;6.77;;
6255;SDS011;3161;48.794;9.784;2023-05-02T04:00:10;7.97;;;6.67;;
6255;SDS011;3161;48.794;9.784;2023-05-02T04:02:38;7.07;;;6.37;;
6255;SDS011;3161;48.794;9.784;2023-05-02T04:05:06;7.67;;;6.53;;
6255;SDS011;3161;48.794;9.784;2023-05-02T04:07:34;7.63;;;6.00;;
6255;SDS011;3161;48.794;9.784;2023-05-02T04:10:01;6.97;;;6.37;;
6255;SDS011;3161;48.794;9.784;2023-05-02T04:12:29;8.80;;;6.93;;
6255;SDS011;3161;48.794;9.784;2023-05-02T04:14:56;6.93;;;6.23;;
6255;SDS011;3161;48.794;9.784;2023-05-02T04:17:24;7.83;;;5.60;;
6255;SDS011;3161;48.794;9.784;2023-05-02T04:19:52;7.50;;;6.80;;
6255;SDS011;3161;48.794;9.784;2023-05-02T04:22:19;6.70;;;5.83;;
6255;SDS011;3161;48.794;9.784;2023-05-02T04:24:47;6.10;;;5.50;;
6255;SDS011;3161;48.794;9.784;2023-05-02T04:27:14;6.97;;;5.83;;
6255;SDS011;3161;48.794;9.784;2023-05-02T04:29:42;8.63;;;5.80;;
6255;SDS011;3161;48.794;9.784;2023-05-02T04:32:09;6.87;;;5.80;;
6255;SDS011;3161;48.794;9.784;2023-05-02T04:34:37;5.97;;;5.03;;
6255;SDS011;3161;48.794;9.784;2023-05-02T04:37:05;5.87;;;5.23;;
6255;SDS011;3161;48.794;9.784;2023-05-02T04:39:32;5.93;;;4.77;;
6255;SDS011;3161;48.794;9.784;2023-05-02T04:42:00;6.13;;;5.20;;
6255;SDS011;3161;48.794;9.784;2023-05-02T04:44:29;5.90;;;5.40;;
6255;SDS011;3161;48.794;9.784;2023-05-02T04:46:56;6.13;;;5.57;;
6255;SDS011;3161;48.794;9.784;2023-05-02T04:49:24;6.73;;;5.77;;
6255;SDS011;3161;48.794;9.784;2023-05-02T04:51:51;7.30;;;5.13;;
6255;SDS011;3161;48.794;9.784;2023-05-02T04:54:19;6.60;;;5.03;;
6255;SDS011;3161;48.794;9.784;2023-05-02T04:56:47;5.93;;;5.37;;
6255;SDS011;3161;48.794;9.784;2023-05-02T04:59:14;7.43;;;5.27;;
6255;SDS011;3161;48.794;9.784;2023-05-02T05:01:42;5.97;;;5.40;;
6255;SDS011;3161;48.794;9.784;2023-05-02T05:04:10;6.17;;;5.53;;
6255;SDS011;3161;48.794;9.784;2023-05-02T05:06:37;5.50;;;5.00;;
6255;SDS011;3161;48.794;9.784;2023-05-02T05:09:05;7.23;;;5.03;;
6255;SDS011;3161;48.794;9.784;2023-05-02T05:11:33;5.43;;;4.93;;
6255;SDS011;3161;48.794;9.784;2023-05-02T05:14:00;7.67;;;5.00;;
6255;SDS011;3161;48.794;9.784;2023-05-02T05:16:29;6.30;;;5.50;;
6255;SDS011;3161;48.794;9.784;2023-05-02T05:18:56;7.93;;;5.30;;
6255;SDS011;3161;48.794;9.784;2023-05-02T05:21:24;7.03;;;5.40;;
6255;SDS011;3161;48.794;9.784;2023-05-02T05:23:52;7.23;;;5.47;;
6255;SDS011;3161;48.794;9.784;2023-05-02T05:26:19;10.87;;;5.60;;
6255;SDS011;3161;48.794;9.784;2023-05-02T05:28:48;6.17;;;5.57;;
6255;SDS011;3161;48.794;9.784;2023-05-02T05:31:16;8.63;;;5.80;;
6255;SDS011;3161;48.794;9.784;2023-05-02T05:33:43;6.17;;;5.53;;
6255;SDS011;3161;48.794;9.784;2023-05-02T05:36:11;8.80;;;6.93;;
6255;SDS011;3161;48.794;9.784;2023-05-02T05:38:40;13.87;;;6.97;;
6255;SDS011;3161;48.794;9.784;2023-05-02T05:41:08;7.43;;;6.63;;
6255;SDS011;3161;48.794;9.784;2023-05-02T05:43:35;7.80;;;6.70;;
6255;SDS011;3161;48.794;9.784;2023-05-02T05:46:03;13.67;;;6.17;;
6255;SDS011;3161;48.794;9.784;2023-05-02T05:48:31;7.23;;;6.50;;
6255;SDS011;3161;48.794;9.784;2023-05-02T05:51:07;9.43;;;5.50;;
6255;SDS011;3161;48.794;9.784;2023-05-02T05:53:31;5.87;;;5.37;;
6255;SDS011;3161;48.794;9.784;2023-05-02T05:56:07;5.37;;;4.87;;
6255;SDS011;3161;48.794;9.784;2023-05-02T05:58:38;6.50;;;5.87;;
6255;SDS011;3161;48.794;9.784;2023-05-02T06:01:07;5.90;;;5.27;;
6255;SDS011;3161;48.794;9.784;2023-05-02T06:03:35;24.10;;;6.77;;
6255;SDS011;3161;48.794;9.784;2023-05-02T06:06:02;6.43;;;5.83;;
6255;SDS011;3161;48.794;9.784;2023-05-02T06:08:31;6.27;;;5.67;;
6255;SDS011;3161;48.794;9.784;2023-05-02T06:10:58;6.13;;;5.47;;
6255;SDS011;3161;48.794;9.784;2023-05-02T06:13:26;9.43;;;5.67;;
6255;SDS011;3161;48.794;9.784;2023-05-02T06:15:53;8.63;;;5.67;;
6255;SDS011;3161;48.794;9.784;2023-05-02T06:18:21;8.43;;;5.00;;
6255;SDS011;3161;48.794;9.784;2023-05-02T06:20:48;5.13;;;4.63;;
6255;SDS011;3161;48.794;9.784;2023-05-02T06:23:16;10.77;;;5.50;;
6255;SDS011;3161;48.794;9.784;2023-05-02T06:25:43;5.17;;;4.77;;
6255;SDS011;3161;48.794;9.784;2023-05-02T06:28:11;6.10;;;5.50;;
6255;SDS011;3161;48.794;9.784;2023-05-02T06:30:38;6.27;;;5.10;;
6255;SDS011;3161;48.794;9.784;2023-05-02T06:33:06;6.00;;;5.33;;
6255;SDS011;3161;48.794;9.784;2023-05-02T06:35:33;8.43;;;5.63;;
6255;SDS011;3161;48.794;9.784;2023-05-02T06:38:01;5.70;;;4.73;;
6255;SDS011;3161;48.794;9.784;2023-05-02T06:40:28;5.60;;;5.10;;
6255;SDS011;3161;48.794;9.784;2023-05-02T06:42:56;7.60;;;4.70;;
6255;SDS011;3161;48.794;9.784;2023-05-02T06:45:23;5.37;;;4.87;;
6255;SDS011;3161;48.794;9.784;2023-05-02T06:47:51;5.13;;;4.73;;
6255;SDS011;3161;48.794;9.784;2023-05-02T06:50:18;5.67;;;5.17;;
6255;SDS011;3161;48.794;9.784;2023-05-02T06:52:46;5.13;;;4.60;;
6255;SDS011;3161;48.794;9.784;2023-05-02T06:55:14;5.13;;;4.73;;
6255;SDS011;3161;48.794;9.784;2023-05-02T06:57:41;5.10;;;4.70;;
6255;SDS011;3161;48.794;9.784;2023-05-02T07:00:09;5.73;;;4.70;;
6255;SDS011;3161;48.794;9.784;2023-05-02T07:02:38;5.47;;;4.97;;
6255;SDS011;3161;48.794;9.784;2023-05-02T07:05:05;5.77;;;4.70;;
6255;SDS011;3161;48.794;9.784;2023-05-02T07:07:33;5.20;;;4.70;;
6255;SDS011;3161;48.794;9.784;2023-05-02T07:10:01;6.20;;;5.10;;
6255;SDS011;3161;48.794;9.784;2023-05-02T07:12:29;8.07;;;5.53;;
6255;SDS011;3161;48.794;9.784;2023-05-02T07:14:57;6.27;;;5.57;;
6255;SDS011;3161;48.794;9.784;2023-05-02T07:17:25;5.13;;;4.73;;
6255;SDS011;3161;48.794;9.784;2023-05-02T07:19:53;5.37;;;4.93;;
6255;SDS011;3161;48.794;9.784;2023-05-02T07:22:21;5.30;;;4.80;;
6255;SDS011;3161;48.794;9.784;2023-05-02T07:24:55;14.77;;;6.10;;
6255;SDS011;3161;48.794;9.784;2023-05-02T07:27:25;95.03;;;13.70;;
6255;SDS011;3161;48.794;9.784;2023-05-02T07:29:52;5.60;;;4.90;;
6255;SDS011;3161;48.794;9.784;2023-05-02T07:32:25;8.07;;;4.83;;
6255;SDS011;3161;48.794;9.784;2023-05-02T07:34:52;5.73;;;5.13;;
6255;SDS011;3161;48.794;9.784;2023-05-02T07:37:20;8.37;;;6.10;;
6255;SDS011;3161;48.794;9.784;2023-05-02T07:39:48;5.20;;;4.70;;
6255;SDS011;3161;48.794;9.784;2023-05-02T07:42:16;6.63;;;4.83;;
6255;SDS011;3161;48.794;9.784;2023-05-02T07:44:43;5.90;;;5.23;;
6255;SDS011;3161;48.794;9.784;2023-05-02T07:47:11;5.40;;;4.90;;
6255;SDS011;3161;48.794;9.784;2023-05-02T07:49:38;6.40;;;5.20;;
6255;SDS011;3161;48.794;9.784;2023-05-02T07:52:06;11.07;;;5.80;;
6255;SDS011;3161;48.794;9.784;2023-05-02T07:54:33;5.73;;;5.00;;
6255;SDS011;3161;48.794;9.784;2023-05-02T07:57:01;6.27;;;5.23;;
6255;SDS011;3161;48.794;9.784;2023-05-02T07:59:30;5.90;;;5.33;;
6255;SDS011;3161;48.794;9.784;2023-05-02T08:01:57;7.87;;;5.67;;
6255;SDS011;3161;48.794;9.784;2023-05-02T08:04:25;5.23;;;4.73;;
6255;SDS011;3161;48.794;9.784;2023-05-02T08:06:53;17.10;;;6.50;;
6255;SDS011;3161;48.794;9.784;2023-05-02T08:09:21;7.73;;;5.13;;
6255;SDS011;3161;48.794;9.784;2023-05-02T08:11:50;7.77;;;6.10;;
6255;SDS011;3161;48.794;9.784;2023-05-02T08:14:17;6.80;;;6.07;;
6255;SDS011;3161;48.794;9.784;2023-05-02T08:16:45;11.03;;;5.90;;
6255;SDS011;3161;48.794;9.784;2023-05-02T08:19:12;4.93;;;4.40;;
6255;SDS011;3161;48.794;9.784;2023-05-02T08:21:41;7.37;;;5.23;;
6255;SDS011;3161;48.794;9.784;2023-05-02T08:24:08;7.03;;;5.43;;
6255;SDS011;3161;48.794;9.784;2023-05-02T08:26:36;8.80;;;5.67;;
6255;SDS011;3161;48.794;9.784;2023-05-02T08:29:03;8.53;;;5.37;;
6255;SDS011;3161;48.794;9.784;2023-05-02T08:31:31;6.27;;;4.87;;
6255;SDS011;3161;48.794;9.784;2023-05-02T08:33:58;5.70;;;4.90;;
6255;SDS011;3161;48.794;9.784;2023-05-02T08:36:26;7.17;;;5.27;;
6255;SDS011;3161;48.794;9.784;2023-05-02T08:38:54;10.47;;;4.80;;
6255;SDS011;3161;48.794;9.784;2023-05-02T08:41:21;8.63;;;5.03;;
6255;SDS011;3161;48.794;9.784;2023-05-02T08:43:49;6.77;;;5.20;;
6255;SDS011;3161;48.794;9.784;2023-05-02T08:46:17;5.70;;;5.20;;
6255;SDS011;3161;48.794;9.784;2023-05-02T08:48:46;7.20;;;6.50;;
6255;SDS011;3161;48.794;9.784;2023-05-02T08:51:16;7.47;;;6.13;;
6255;SDS011;3161;48.794;9.784;2023-05-02T08:53:44;7.27;;;5.60;;
6255;SDS011;3161;48.794;9.784;2023-05-02T08:56:12;7.07;;;6.03;;
6255;SDS011;3161;48.794;9.784;2023-05-02T08:58:40;7.67;;;6.37;;
6255;SDS011;3161;48.794;9.784;2023-05-02T09:01:08;11.27;;;6.87;;
6255;SDS011;3161;48.794;9.784;2023-05-02T09:03:38;6.60;;;6.00;;
6255;SDS011;3161;48.794;9.784;2023-05-02T09:06:09;5.87;;;4.90;;
6255;SDS011;3161;48.794;9.784;2023-05-02T09:08:45;7.30;;;6.10;;
6255;SDS011;3161;48.794;9.784;2023-05-02T09:11:14;11.90;;;8.90;;
6255;SDS011;3161;48.794;9.784;2023-05-02T09:13:43;11.97;;;5.87;;
6255;SDS011;3161;48.794;9.784;2023-05-02T09:16:16;6.20;;;5.60;;
6255;SDS011;3161;48.794;9.784;2023-05-02T09:18:49;6.43;;;5.80;;
6255;SDS011;3161;48.794;9.784;2023-05-02T09:21:18;7.77;;;6.27;;
6255;SDS011;3161;48.794;9.784;2023-05-02T09:23:47;9.33;;;5.53;;
6255;SDS011;3161;48.794;9.784;2023-05-02T09:26:20;6.97;;;5.93;;
6255;SDS011;3161;48.794;9.784;2023-05-02T09:28:55;6.07;;;5.47;;
6255;SDS011;3161;48.794;9.784;2023-05-02T09:31:23;6.97;;;6.27;;
6255;SDS011;3161;48.794;9.784;2023-05-02T09:33:52;7.60;;;5.80;;
6255;SDS011;3161;48.794;9.784;2023-05-02T09:36:20;7.37;;;5.43;;
6255;SDS011;3161;48.794;9.784;2023-05-02T09:38:48;8.20;;;5.30;;
6255;SDS011;3161;48.794;9.784;2023-05-02T09:41:16;5.77;;;5.03;;
6255;SDS011;3161;48.794;9.784;2023-05-02T09:43:53;12.27;;;5.90;;
6255;SDS011;3161;48.794;9.784;2023-05-02T09:46:16;9.13;;;6.20;;
6255;SDS011;3161;48.794;9.784;2023-05-02T09:48:50;5.97;;;5.23;;
6255;SDS011;3161;48.794;9.784;2023-05-02T09:51:25;6.50;;;5.90;;
6255;SDS011;3161;48.794;9.784;2023-05-02T09:53:53;8.20;;;6.03;;
6255;SDS011;3161;48.794;9.784;2023-05-02T09:56:20;9.17;;;5.97;;
6255;SDS011;3161;48.794;9.784;2023-05-02T09:58:48;8.37;;;5.53;;
6255;SDS011;3161;48.794;9.784;2023-05-02T10:01:16;10.30;;;5.70;;
6255;SDS011;3161;48.794;9.784;2023-05-02T10:03:47;7.57;;;5.60;;
6255;SDS011;3161;48.794;9.784;2023-05-02T10:06:15;6.43;;;5.50;;
6255;SDS011;3161;48.794;9.784;2023-05-02T10:08:44;9.03;;;6.23;;
6255;SDS011;3161;48.794;9.784;2023-05-02T10:11:13;5.60;;;5.10;;
6255;SDS011;3161;48.794;9.784;2023-05-02T10:13:40;8.80;;;5.63;;
6255;SDS011;3161;48.794;9.784;2023-05-02T10:16:11;8.27;;;6.57;;
6255;SDS011;3161;48.794;9.784;2023-05-02T10:19:02;7.13;;;6.07;;
6255;SDS011;3161;48.794;9.784;2023-05-02T10:21:37;8.93;;;5.77;;
6255;SDS011;3161;48.794;9.784;2023-05-02T10:24:07;6.10;;;5.50;;
6255;SDS011;3161;48.794;9.784;2023-05-02T10:26:35;7.93;;;5.33;;
6255;SDS011;3161;48.794;9.784;2023-05-02T10:29:08;6.80;;;5.47;;
6255;SDS011;3161;48.794;9.784;2023-05-02T10:31:37;6.20;;;5.17;;
6255;SDS011;3161;48.794;9.784;2023-05-02T10:34:05;6.93;;;5.60;;
6255;SDS011;3161;48.794;9.784;2023-05-02T10:36:35;5.67;;;5.13;;
6255;SDS011;3161;48.794;9.784;2023-05-02T10:39:03;6.17;;;5.07;;
6255;SDS011;3161;48.794;9.784;2023-05-02T10:41:32;17.63;;;5.90;;
6255;SDS011;3161;48.794;9.784;2023-05-02T10:44:01;6.93;;;4.93;;
6255;SDS011;3161;48.794;9.784;2023-05-02T10:49:04;7.80;;;5.17;;
6255;SDS011;3161;48.794;9.784;2023-05-02T10:51:37;5.90;;;4.80;;
6255;SDS011;3161;48.794;9.784;2023-05-02T10:54:19;8.97;;;4.67;;
6255;SDS011;3161;48.794;9.784;2023-05-02T10:57:09;5.20;;;4.63;;
6255;SDS011;3161;48.794;9.784;2023-05-02T10:59:42;9.77;;;4.70;;
6255;SDS011;3161;48.794;9.784;2023-05-02T11:05:05;5.60;;;5.00;;
6255;SDS011;3161;48.794;9.784;2023-05-02T11:07:33;4.70;;;4.30;;
6255;SDS011;3161;48.794;9.784;2023-05-02T11:12:50;11.37;;;4.83;;
6255;SDS011;3161;48.794;9.784;2023-05-02T11:15:52;7.70;;;4.30;;
6255;SDS011;3161;48.794;9.784;2023-05-02T11:17:57;5.20;;;4.70;;
6255;SDS011;3161;48.794;9.784;2023-05-02T11:20:31;4.73;;;4.30;;
6255;SDS011;3161;48.794;9.784;2023-05-02T11:25:50;5.17;;;4.67;;
6255;SDS011;3161;48.794;9.784;2023-05-02T11:31:51;6.33;;;4.33;;
6255;SDS011;3161;48.794;9.784;2023-05-02T11:33:35;6.03;;;4.00;;
6255;SDS011;3161;48.794;9.784;2023-05-02T11:36:03;5.83;;;4.80;;
6255;SDS011;3161;48.794;9.784;2023-05-02T11:38:34;4.97;;;4.50;;
6255;SDS011;3161;48.794;9.784;2023-05-02T11:41:03;4.50;;;4.10;;
6255;SDS011;3161;48.794;9.784;2023-05-02T11:43:42;5.70;;;4.60;;
6255;SDS011;3161;48.794;9.784;2023-05-02T11:46:06;6.03;;;5.20;;
6255;SDS011;3161;48.794;9.784;2023-05-02T11:48:34;9.87;;;8.00;;
6255;SDS011;3161;48.794;9.784;2023-05-02T11:51:02;4.77;;;4.27;;
6255;SDS011;3161;48.794;9.784;2023-05-02T11:53:31;7.57;;;4.93;;
6255;SDS011;3161;48.794;9.784;2023-05-02T11:56:00;7.97;;;4.97;;
6255;SDS011;3161;48.794;9.784;2023-05-02T11:58:30;4.87;;;4.20;;
6255;SDS011;3161;48.794;9.784;2023-05-02T12:00:59;9.63;;;4.27;;
6255;SDS011;3161;48.794;9.784;2023-05-02T12:03:38;6.23;;;4.70;;
6255;SDS011;3161;48.794;9.784;2023-05-02T12:06:09;4.53;;;4.13;;
6255;SDS011;3161;48.794;9.784;2023-05-02T12:08:39;7.60;;;5.23;;
6255;SDS011;3161;48.794;9.784;2023-05-02T12:11:08;4.83;;;4.27;;
6255;SDS011;3161;48.794;9.784;2023-05-02T12:13:43;6.70;;;4.30;;
6255;SDS011;3161;48.794;9.784;2023-05-02T12:16:07;6.53;;;4.60;;
6255;SDS011;3161;48.794;9.784;2023-05-02T12:18:35;6.50;;;3.83;;
6255;SDS011;3161;48.794;9.784;2023-05-02T12:21:04;4.43;;;3.70;;
6255;SDS011;3161;48.794;9.784;2023-05-02T12:23:33;6.90;;;3.67;;
6255;SDS011;3161;48.794;9.784;2023-05-02T12:26:14;5.37;;;4.27;;
6255;SDS011;3161;48.794;9.784;2023-05-02T12:28:49;7.70;;;3.87;;
6255;SDS011;3161;48.794;9.784;2023-05-02T12:31:19;6.87;;;3.10;;
6255;SDS011;3161;48.794;9.784;2023-05-02T12:33:47;6.53;;;4.13;;
6255;SDS011;3161;48.794;9.784;2023-05-02T12:36:21;4.17;;;3.77;;
6255;SDS011;3161;48.794;9.784;2023-05-02T12:38:48;5.80;;;4.87;;
6255;SDS011;3161;48.794;9.784;2023-05-02T12:41:35;10.00;;;6.17;;
6255;SDS011;3161;48.794;9.784;2023-05-02T12:44:06;7.47;;;5.33;;
6255;SDS011;3161;48.794;9.784;2023-05-02T12:46:33;5.83;;;5.20;;
6255;SDS011;3161;48.794;9.784;2023-05-02T12:49:02;4.77;;;4.37;;
6255;SDS011;3161;48.794;9.784;2023-05-02T12:51:32;15.20;;;3.77;;
6255;SDS011;3161;48.794;9.784;2023-05-02T12:54:01;4.83;;;4.43;;
6255;SDS011;3161;48.794;9.784;2023-05-02T12:56:29;7.07;;;3.90;;
6255;SDS011;3161;48.794;9.784;2023-05-02T12:58:59;4.73;;;4.23;;
6255;SDS011;3161;48.794;9.784;2023-05-02T13:01:28;5.53;;;4.87;;
6255;SDS011;3161;48.794;9.784;2023-05-02T13:03:56;4.53;;;4.07;;
6255;SDS011;3161;48.794;9.784;2023-05-02T13:06:23;3.90;;;3.50;;
6255;SDS011;3161;48.794;9.784;2023-05-02T13:08:51;3.17;;;2.87;;
6255;SDS011;3161;48.794;9.784;2023-05-02T13:11:18;3.57;;;2.97;;
6255;SDS011;3161;48.794;9.784;2023-05-02T13:13:46;3.13;;;2.90;;
6255;SDS011;3161;48.794;9.784;2023-05-02T13:16:14;3.17;;;2.90;;
6255;SDS011;3161;48.794;9.784;2023-05-02T13:18:41;2.73;;;2.53;;
6255;SDS011;3161;48.794;9.784;2023-05-02T13:21:09;2.50;;;2.30;;
6255;SDS011;3161;48.794;9.784;2023-05-02T13:23:55;4.27;;;3.00;;
6255;SDS011;3161;48.794;9.784;2023-05-02T13:26:23;5.20;;;3.20;;
6255;SDS011;3161;48.794;9.784;2023-05-02T13:28:51;2.90;;;2.40;;
6255;SDS011;3161;48.794;9.784;2023-05-02T13:31:18;4.93;;;2.80;;
6255;SDS011;3161;48.794;9.784;2023-05-02T13:33:46;4.17;;;3.83;;
6255;SDS011;3161;48.794;9.784;2023-05-02T13:36:14;3.93;;;3.47;;
6255;SDS011;3161;48.794;9.784;2023-05-02T13:38:41;6.00;;;5.10;;
6255;SDS011;3161;48.794;9.784;2023-05-02T13:41:09;7.57;;;5.90;;
6255;SDS011;3161;48.794;9.784;2023-05-02T13:43:36;7.40;;;6.43;;
6255;SDS011;3161;48.794;9.784;2023-05-02T13:46:05;7.60;;;6.10;;
6255;SDS011;3161;48.794;9.784;2023-05-02T13:48:32;7.10;;;6.40;;
6255;SDS011;3161;48.794;9.784;2023-05-02T13:51:02;6.70;;;5.80;;
6255;SDS011;3161;48.794;9.784;2023-05-02T13:53:29;7.17;;;5.90;;
6255;SDS011;3161;48.794;9.784;2023-05-02T13:55:57;8.53;;;5.47;;
6255;SDS011;3161;48.794;9.784;2023-05-02T13:58:24;8.03;;;5.40;;
6255;SDS011;3161;48.794;9.784;2023-05-02T14:00:52;5.43;;;4.80;;
6255;SDS011;3161;48.794;9.784;2023-05-02T14:03:19;6.03;;;5.03;;
6255;SDS011;3161;48.794;9.784;2023-05-02T14:05:47;6.47;;;5.43;;
6255;SDS011;3161;48.794;9.784;2023-05-02T14:08:14;6.13;;;4.73;;
6255;SDS011;3161;48.794;9.784;2023-05-02T14:10:43;4.73;;;4.33;;
6255;SDS011;3161;48.794;9.784;2023-05-02T14:13:11;5.73;;;4.87;;
6255;SDS011;3161;48.794;9.784;2023-05-02T14:15:39;5.33;;;4.77;;
6255;SDS011;3161;48.794;9.784;2023-05-02T14:18:06;4.87;;;4.20;;
6255;SDS011;3161;48.794;9.784;2023-05-02T14:20:34;5.03;;;4.53;;
6255;SDS011;3161;48.794;9.784;2023-05-02T14:23:02;4.47;;;4.07;;
6255;SDS011;3161;48.794;9.784;2023-05-02T14:25:29;5.63;;;4.40;;
6255;SDS011;3161;48.794;9.784;2023-05-02T14:27:57;3.77;;;3.47;;
6255;SDS011;3161;48.794;9.784;2023-05-02T14:30:25;4.57;;;3.70;;
6255;SDS011;3161;48.794;9.784;2023-05-02T14:32:53;6.13;;;4.87;;
6255;SDS011;3161;48.794;9.784;2023-05-02T14:35:21;4.63;;;4.20;;
6255;SDS011;3161;48.794;9.784;2023-05-02T14:37:48;4.27;;;3.87;;
6255;SDS011;3161;48.794;9.784;2023-05-02T14:40:16;3.90;;;3.60;;
6255;SDS011;3161;48.794;9.784;2023-05-02T14:42:43;5.47;;;3.80;;
6255;SDS011;3161;48.794;9.784;2023-05-02T14:45:11;5.83;;;3.70;;
6255;SDS011;3161;48.794;9.784;2023-05-02T14:47:39;3.10;;;2.90;;
6255;SDS011;3161;48.794;9.784;2023-05-02T14:50:06;3.50;;;2.73;;
6255;SDS011;3161;48.794;9.784;2023-05-02T14:52:34;3.23;;;2.93;;
6255;SDS011;3161;48.794;9.784;2023-05-02T14:55:02;2.50;;;2.30;;
6255;SDS011;3161;48.794;9.784;2023-05-02T14:57:30;2.97;;;2.47;;
6255;SDS011;3161;48.794;9.784;2023-05-02T14:59:58;2.60;;;2.27;;
6255;SDS011;3161;48.794;9.784;2023-05-02T15:02:26;2.20;;;2.03;;
6255;SDS011;3161;48.794;9.784;2023-05-02T15:04:54;2.00;;;1.83;;
6255;SDS011;3161;48.794;9.784;2023-05-02T15:07:21;2.27;;;2.00;;
6255;SDS011;3161;48.794;9.784;2023-05-02T15:09:49;3.03;;;1.90;;
6255;SDS011;3161;48.794;9.784;2023-05-02T15:12:16;1.80;;;1.70;;
6255;SDS011;3161;48.794;9.784;2023-05-02T15:14:44;1.63;;;1.53;;
6255;SDS011;3161;48.794;9.784;2023-05-02T15:17:11;1.80;;;1.70;;
6255;SDS011;3161;48.794;9.784;2023-05-02T15:19:39;1.80;;;1.60;;
6255;SDS011;3161;48.794;9.784;2023-05-02T15:22:06;5.40;;;2.50;;
6255;SDS011;3161;48.794;9.784;2023-05-02T15:24:34;2.13;;;2.00;;
6255;SDS011;3161;48.794;9.784;2023-05-02T15:27:02;1.73;;;1.63;;
6255;SDS011;3161;48.794;9.784;2023-05-02T15:29:30;4.40;;;2.00;;
6255;SDS011;3161;48.794;9.784;2023-05-02T15:31:57;1.70;;;1.60;;
6255;SDS011;3161;48.794;9.784;2023-05-02T15:34:25;3.97;;;2.20;;
6255;SDS011;3161;48.794;9.784;2023-05-02T15:36:53;2.40;;;2.20;;
6255;SDS011;3161;48.794;9.784;2023-05-02T15:39:21;3.20;;;2.20;;
6255;SDS011;3161;48.794;9.784;2023-05-02T15:41:50;8.97;;;2.47;;
6255;SDS011;3161;48.794;9.784;2023-05-02T15:44:18;2.60;;;2.40;;
6255;SDS011;3161;48.794;9.784;2023-05-02T15:46:45;4.10;;;2.60;;
6255;SDS011;3161;48.794;9.784;2023-05-02T15:49:14;4.30;;;2.60;;
6255;SDS011;3161;48.794;9.784;2023-05-02T15:51:41;3.20;;;2.47;;
6255;SDS011;3161;48.794;9.784;2023-05-02T15:54:09;4.77;;;2.83;;
6255;SDS011;3161;48.794;9.784;2023-05-02T15:56:36;2.47;;;2.27;;
6255;SDS011;3161;48.794;9.784;2023-05-02T15:59:04;4.40;;;2.13;;
6255;SDS011;3161;48.794;9.784;2023-05-02T16:01:31;4.23;;;2.77;;
6255;SDS011;3161;48.794;9.784;2023-05-02T16:03:59;3.93;;;3.00;;
6255;SDS011;3161;48.794;9.784;2023-05-02T16:06:26;6.07;;;3.63;;
6255;SDS011;3161;48.794;9.784;2023-05-02T16:08:55;4.13;;;2.90;;
6255;SDS011;3161;48.794;9.784;2023-05-02T16:11:22;3.37;;;3.07;;